createdAt,value
2018-09-22T00:02:19.336Z,4.00
2018-09-22T00:04:48.060Z,4.13
2018-09-22T00:07:17.440Z,4.90
2018-09-22T00:09:46.314Z,4.73
2018-09-22T00:12:15.264Z,4.30
2018-09-22T00:14:44.205Z,4.53
2018-09-22T00:17:13.069Z,5.00
2018-09-22T00:19:42.164Z,4.70
2018-09-22T00:22:17.138Z,5.70
2018-09-22T00:24:45.860Z,5.30
2018-09-22T00:27:14.415Z,4.67
2018-09-22T00:29:43.048Z,5.03
2018-09-22T00:32:11.786Z,5.30
2018-09-22T00:34:40.328Z,4.67
2018-09-22T00:37:08.905Z,5.37
2018-09-22T00:39:37.631Z,4.73
2018-09-22T00:42:06.990Z,5.17
2018-09-22T00:44:35.701Z,5.73
2018-09-22T00:47:04.526Z,5.37
2018-09-22T00:49:33.225Z,5.30
2018-09-22T00:52:02.365Z,5.70
2018-09-22T00:54:31.085Z,4.73
2018-09-22T00:56:59.662Z,4.67
2018-09-22T00:59:28.737Z,4.93
2018-09-22T01:01:58.437Z,4.73
2018-09-22T01:04:27.028Z,4.20
2018-09-22T01:06:55.775Z,5.30
2018-09-22T01:09:24.462Z,5.17
2018-09-22T01:11:53.194Z,4.40
2018-09-22T01:14:21.778Z,4.37
2018-09-22T01:16:50.644Z,4.80
2018-09-22T01:19:19.181Z,4.60
2018-09-22T01:21:48.007Z,4.60
2018-09-22T01:24:16.800Z,4.17
2018-09-22T01:26:45.329Z,4.10
2018-09-22T01:29:16.319Z,4.50
2018-09-22T01:31:45.600Z,4.20
2018-09-22T01:34:14.341Z,3.93
2018-09-22T01:36:43.997Z,4.43
2018-09-22T01:39:13.816Z,4.70
2018-09-22T01:41:42.637Z,4.83
2018-09-22T01:44:11.574Z,3.83
2018-09-22T01:46:40.231Z,4.77
2018-09-22T01:49:08.776Z,4.30
2018-09-22T01:51:37.335Z,4.43
2018-09-22T01:54:06.219Z,5.30
2018-09-22T01:56:35.015Z,4.33
2018-09-22T01:59:04.624Z,4.63
2018-09-22T02:01:33.304Z,4.93
2018-09-22T02:04:01.935Z,4.80
2018-09-22T02:06:30.674Z,4.83
2018-09-22T02:09:00.421Z,4.83
2018-09-22T02:11:29.058Z,5.65
2018-09-22T02:13:57.669Z,4.90
2018-09-22T02:16:26.364Z,4.70
2018-09-22T02:18:54.845Z,5.10
2018-09-22T02:21:23.533Z,4.40
2018-09-22T02:23:52.161Z,4.80
2018-09-22T02:26:20.831Z,4.27
2018-09-22T02:28:49.457Z,4.40
2018-09-22T02:31:18.203Z,3.57
2018-09-22T02:33:46.765Z,3.73
2018-09-22T02:36:15.337Z,4.30
2018-09-22T02:38:44.070Z,4.40
2018-09-22T02:41:12.597Z,4.00
2018-09-22T02:43:41.225Z,4.10
2018-09-22T02:46:09.947Z,3.63
2018-09-22T02:48:38.661Z,3.60
2018-09-22T02:51:08.029Z,3.87
2018-09-22T02:53:36.835Z,3.93
2018-09-22T02:56:05.391Z,4.23
2018-09-22T02:58:34.522Z,3.50
2018-09-22T03:01:03.730Z,3.63
2018-09-22T03:03:32.461Z,3.83
2018-09-22T03:06:01.211Z,3.80
2018-09-22T03:08:30.001Z,3.63
2018-09-22T03:10:58.582Z,3.90
2018-09-22T03:13:28.224Z,3.63
2018-09-22T03:15:56.977Z,3.30
2018-09-22T03:18:25.569Z,3.27
2018-09-22T03:20:54.107Z,3.80
2018-09-22T03:23:22.875Z,3.57
2018-09-22T03:25:51.741Z,3.97
2018-09-22T03:28:20.332Z,3.63
2018-09-22T03:30:48.923Z,3.53
2018-09-22T03:33:17.457Z,3.40
2018-09-22T03:35:46.043Z,3.70
2018-09-22T03:38:15.315Z,3.73
2018-09-22T03:40:43.903Z,3.30
2018-09-22T03:43:12.577Z,3.50
2018-09-22T03:45:41.155Z,3.17
2018-09-22T03:48:09.705Z,3.40
2018-09-22T03:50:38.235Z,3.53
2018-09-22T03:53:06.873Z,3.30
2018-09-22T03:55:35.465Z,3.80
2018-09-22T03:58:04.042Z,4.27
2018-09-22T04:00:32.798Z,4.10
2018-09-22T04:03:01.275Z,3.73
2018-09-22T04:05:29.776Z,3.40
2018-09-22T04:07:58.561Z,4.20
2018-09-22T04:10:27.094Z,3.77
2018-09-22T04:12:55.679Z,4.13
2018-09-22T04:15:24.407Z,3.90
2018-09-22T04:17:52.922Z,4.13
2018-09-22T04:20:21.645Z,4.33
2018-09-22T04:22:50.813Z,4.30
2018-09-22T04:25:19.346Z,4.30
2018-09-22T04:27:47.877Z,4.97
2018-09-22T04:30:16.579Z,4.37
2018-09-22T04:32:45.221Z,4.63
2018-09-22T04:35:13.714Z,4.23
2018-09-22T04:37:42.430Z,4.40
2018-09-22T04:40:11.006Z,4.13
2018-09-22T04:42:39.592Z,4.10
2018-09-22T04:45:08.392Z,4.10
2018-09-22T04:47:36.953Z,4.93
2018-09-22T04:50:05.528Z,4.77
2018-09-22T04:52:34.384Z,3.80
2018-09-22T04:55:03.192Z,4.40
2018-09-22T04:57:32.226Z,4.27
2018-09-22T05:00:01.050Z,3.60
2018-09-22T05:02:29.714Z,3.80
2018-09-22T05:04:58.276Z,4.50
2018-09-22T05:07:27.065Z,3.83
2018-09-22T05:10:02.281Z,4.30
2018-09-22T05:12:31.581Z,4.17
2018-09-22T05:15:00.213Z,3.67
2018-09-22T05:17:29.181Z,3.70
2018-09-22T05:19:57.937Z,3.53
2018-09-22T05:22:26.500Z,4.20
2018-09-22T05:24:55.096Z,3.50
2018-09-22T05:27:23.941Z,3.20
2018-09-22T05:29:52.705Z,3.60
2018-09-22T05:32:21.425Z,3.20
2018-09-22T05:34:50.229Z,3.13
2018-09-22T05:37:19.115Z,3.20
2018-09-22T05:39:47.731Z,3.13
2018-09-22T05:42:17.694Z,3.10
2018-09-22T05:44:46.385Z,3.20
2018-09-22T05:47:15.442Z,3.10
2018-09-22T05:49:45.304Z,2.97
2018-09-22T05:52:13.801Z,2.93
2018-09-22T05:54:42.665Z,2.70
2018-09-22T05:57:11.795Z,2.27
2018-09-22T05:59:40.515Z,2.43
2018-09-22T06:02:09.363Z,2.10
2018-09-22T06:04:38.077Z,2.10
2018-09-22T06:07:06.659Z,2.40
2018-09-22T06:09:35.360Z,2.23
2018-09-22T06:12:04.035Z,2.30
2018-09-22T06:14:32.917Z,2.43
2018-09-22T06:17:01.678Z,1.80
2018-09-22T06:19:30.830Z,2.47
2018-09-22T06:21:59.570Z,2.40
2018-09-22T06:24:28.528Z,1.60
2018-09-22T06:26:58.427Z,1.63
2018-09-22T06:29:27.190Z,1.70
2018-09-22T06:31:55.826Z,1.93
2018-09-22T06:34:24.836Z,1.67
2018-09-22T06:36:54.497Z,1.60
2018-09-22T06:39:23.076Z,1.60
2018-09-22T06:41:53.022Z,1.67
2018-09-22T06:44:21.569Z,1.43
2018-09-22T06:46:50.210Z,1.30
2018-09-22T06:49:18.978Z,2.03
2018-09-22T06:51:47.519Z,2.20
2018-09-22T06:54:17.285Z,1.67
2018-09-22T06:56:46.094Z,1.50
2018-09-22T06:59:14.713Z,1.90
2018-09-22T07:01:43.344Z,1.40
2018-09-22T07:04:12.162Z,1.60
2018-09-22T07:06:41.842Z,1.20
2018-09-22T07:09:10.481Z,0.93
2018-09-22T07:11:39.373Z,1.30
2018-09-22T07:14:08.096Z,1.10
2018-09-22T07:16:36.725Z,1.10
2018-09-22T07:19:05.610Z,1.20
2018-09-22T07:21:39.501Z,1.30
2018-09-22T07:24:08.218Z,1.50
2018-09-22T07:26:36.761Z,0.60
2018-09-22T07:29:05.260Z,1.10
2018-09-22T07:31:34.116Z,0.80
2018-09-22T07:34:02.731Z,0.73
2018-09-22T07:36:31.422Z,1.20
2018-09-22T07:39:00.253Z,0.80
2018-09-22T07:41:28.856Z,1.40
2018-09-22T07:43:57.618Z,1.33
2018-09-22T07:46:26.546Z,1.30
2018-09-22T07:48:55.117Z,1.10
2018-09-22T07:51:23.678Z,1.00
2018-09-22T07:53:53.435Z,1.37
2018-09-22T07:56:23.040Z,1.00
2018-09-22T07:58:51.890Z,0.90
2018-09-22T08:01:20.626Z,1.30
2018-09-22T08:03:49.195Z,1.00
2018-09-22T08:06:17.769Z,1.50
2018-09-22T08:08:47.345Z,1.10
2018-09-22T08:11:16.102Z,1.10
2018-09-22T08:13:44.651Z,0.93
2018-09-22T08:16:13.386Z,1.63
2018-09-22T08:18:41.895Z,1.30
2018-09-22T08:21:10.583Z,1.03
2018-09-22T08:23:40.174Z,1.20
2018-09-22T08:26:09.228Z,1.47
2018-09-22T08:28:37.815Z,1.30
2018-09-22T08:31:06.789Z,1.37
2018-09-22T08:33:35.489Z,0.97
2018-09-22T08:36:04.221Z,0.90
2018-09-22T08:38:32.931Z,1.30
2018-09-22T08:41:01.514Z,0.70
2018-09-22T08:43:30.033Z,1.17
2018-09-22T08:45:59.445Z,1.40
2018-09-22T08:48:28.093Z,1.40
2018-09-22T08:50:56.777Z,1.17
2018-09-22T08:53:25.419Z,0.90
2018-09-22T08:55:54.018Z,1.67
2018-09-22T08:58:22.773Z,0.90
2018-09-22T09:00:51.781Z,2.23
2018-09-22T09:03:21.186Z,1.57
2018-09-22T09:05:49.920Z,1.37
2018-09-22T09:08:18.869Z,1.53
2018-09-22T09:10:49.150Z,1.80
2018-09-22T09:13:18.168Z,1.93
2018-09-22T09:15:47.212Z,2.60
2018-09-22T09:18:15.828Z,2.17
2018-09-22T09:20:45.591Z,1.50
2018-09-22T09:23:14.282Z,1.57
2018-09-22T09:25:42.802Z,1.63
2018-09-22T09:28:12.914Z,1.60
2018-09-22T09:30:41.991Z,1.53
2018-09-22T09:33:12.237Z,1.00
2018-09-22T09:35:40.998Z,1.43
2018-09-22T09:38:09.916Z,1.60
2018-09-22T09:40:38.535Z,1.53
2018-09-22T09:43:07.700Z,1.50
2018-09-22T09:45:36.677Z,0.93
2018-09-22T09:48:05.178Z,0.90
2018-09-22T09:50:34.053Z,1.37
2018-09-22T09:53:04.230Z,0.93
2018-09-22T09:55:32.834Z,1.40
2018-09-22T09:58:02.482Z,1.30
2018-09-22T10:00:36.495Z,1.30
2018-09-22T10:03:05.081Z,1.00
2018-09-22T10:05:33.735Z,0.90
2018-09-22T10:08:02.391Z,0.90
2018-09-22T10:10:30.995Z,0.67
2018-09-22T10:12:59.721Z,1.00
2018-09-22T10:15:28.282Z,1.10
2018-09-22T10:17:56.967Z,1.37
2018-09-22T10:20:25.678Z,0.60
2018-09-22T10:22:54.292Z,0.70
2018-09-22T10:25:22.942Z,1.00
2018-09-22T10:27:52.607Z,1.10
2018-09-22T10:30:21.214Z,0.87
2018-09-22T10:32:51.031Z,0.97
2018-09-22T10:35:19.752Z,1.33
2018-09-22T10:37:49.289Z,1.00
2018-09-22T10:40:17.947Z,1.17
2018-09-22T10:42:46.694Z,1.40
2018-09-22T10:45:15.334Z,0.80
2018-09-22T10:47:44.018Z,1.07
2018-09-22T10:50:13.581Z,0.97
2018-09-22T10:52:42.184Z,1.00
2018-09-22T10:55:10.757Z,0.90
2018-09-22T10:57:39.246Z,0.80
2018-09-22T11:00:07.995Z,0.80
2018-09-22T11:02:36.533Z,0.60
2018-09-22T11:05:05.487Z,1.20
2018-09-22T11:07:34.065Z,0.90
2018-09-22T11:10:02.719Z,0.90
2018-09-22T11:12:31.296Z,0.70
2018-09-22T11:15:01.320Z,0.63
2018-09-22T11:17:30.377Z,1.03
2018-09-22T11:19:59.304Z,1.30
2018-09-22T11:22:27.941Z,1.23
2018-09-22T11:24:56.625Z,1.30
2018-09-22T11:27:25.279Z,0.90
2018-09-22T11:29:54.009Z,0.97
2018-09-22T11:32:23.603Z,1.30
2018-09-22T11:34:52.436Z,0.90
2018-09-22T11:37:21.721Z,1.10
2018-09-22T11:39:50.313Z,0.90
2018-09-22T11:42:18.903Z,1.20
2018-09-22T11:44:47.514Z,1.20
2018-09-22T11:47:16.132Z,1.17
2018-09-22T11:49:44.764Z,0.90
2018-09-22T11:52:13.381Z,1.17
2018-09-22T11:54:42.846Z,1.20
2018-09-22T11:57:11.534Z,1.10
2018-09-22T11:59:40.139Z,1.37
2018-09-22T12:02:08.775Z,0.90
2018-09-22T12:04:37.500Z,1.00
2018-09-22T12:07:06.185Z,0.90
2018-09-22T12:09:34.894Z,1.10
2018-09-22T12:12:03.576Z,1.50
2018-09-22T12:14:32.123Z,0.80
2018-09-22T12:17:00.674Z,1.27
2018-09-22T12:19:29.270Z,1.10
2018-09-22T12:21:57.934Z,1.00
2018-09-22T12:24:26.589Z,1.43
2018-09-22T12:26:55.159Z,1.33
2018-09-22T12:29:24.337Z,1.00
2018-09-22T12:31:53.047Z,1.50
2018-09-22T12:34:21.703Z,1.27
2018-09-22T12:36:50.393Z,1.07
2018-09-22T12:39:19.981Z,0.97
2018-09-22T12:41:48.682Z,1.17
2018-09-22T12:44:17.470Z,1.07
2018-09-22T12:46:46.083Z,1.30
2018-09-22T12:49:14.691Z,1.10
2018-09-22T12:51:43.345Z,1.20
2018-09-22T12:54:11.966Z,1.43
2018-09-22T12:56:40.629Z,1.47
2018-09-22T12:59:09.550Z,1.67
2018-09-22T13:01:38.214Z,1.53
2018-09-22T13:04:06.847Z,2.00
2018-09-22T13:06:35.453Z,1.30
2018-09-22T13:09:05.280Z,1.47
2018-09-22T13:11:36.238Z,1.27
2018-09-22T13:14:05.306Z,1.17
2018-09-22T13:16:34.237Z,1.17
2018-09-22T13:19:02.966Z,1.13
2018-09-22T13:21:31.549Z,1.10
2018-09-22T13:24:00.174Z,1.13
2018-09-22T13:26:28.878Z,1.10
2018-09-22T13:28:57.553Z,1.40
2018-09-22T13:31:26.266Z,0.97
2018-09-22T13:33:54.935Z,1.00
2018-09-22T13:36:23.711Z,1.40
2018-09-22T13:38:52.233Z,1.30
2018-09-22T13:41:20.969Z,1.10
2018-09-22T13:43:49.616Z,1.10
2018-09-22T13:46:18.491Z,1.20
2018-09-22T13:48:47.236Z,1.37
2018-09-22T13:51:15.955Z,1.30
2018-09-22T13:53:44.545Z,1.30
2018-09-22T13:56:13.202Z,1.30
2018-09-22T13:58:41.863Z,1.50
2018-09-22T14:01:11.498Z,1.30
2018-09-22T14:03:41.411Z,1.30
2018-09-22T14:06:10.893Z,0.93
2018-09-22T14:08:39.601Z,1.20
2018-09-22T14:11:08.351Z,1.30
2018-09-22T14:13:36.977Z,1.33
2018-09-22T14:16:05.572Z,1.50
2018-09-22T14:18:34.942Z,1.33
2018-09-22T14:21:03.584Z,1.37
2018-09-22T14:23:33.307Z,1.20
2018-09-22T14:26:02.042Z,1.23
2018-09-22T14:28:30.750Z,0.90
2018-09-22T14:30:59.557Z,1.20
2018-09-22T14:33:28.380Z,1.13
2018-09-22T14:35:57.013Z,1.20
2018-09-22T14:38:25.638Z,1.20
2018-09-22T14:40:54.373Z,1.23
2018-09-22T14:43:23.125Z,1.10
2018-09-22T14:45:51.816Z,1.57
2018-09-22T14:48:21.159Z,1.57
2018-09-22T14:50:50.584Z,1.20
2018-09-22T14:53:19.900Z,1.10
2018-09-22T14:55:48.672Z,1.67
2018-09-22T14:58:17.404Z,1.57
2018-09-22T15:00:46.052Z,1.33
2018-09-22T15:03:14.837Z,1.10
2018-09-22T15:05:43.335Z,1.40
2018-09-22T15:08:12.090Z,1.47
2018-09-22T15:10:40.954Z,1.20
2018-09-22T15:13:09.573Z,1.17
2018-09-22T15:15:38.132Z,1.40
2018-09-22T15:18:06.992Z,1.47
2018-09-22T15:20:36.125Z,1.30
2018-09-22T15:23:04.833Z,1.30
2018-09-22T15:25:33.561Z,1.43
2018-09-22T15:28:02.202Z,1.57
2018-09-22T15:30:31.881Z,1.23
2018-09-22T15:33:00.612Z,1.50
2018-09-22T15:35:30.384Z,1.40
2018-09-22T15:37:58.904Z,1.90
2018-09-22T15:40:27.675Z,1.70
2018-09-22T15:42:56.591Z,1.60
2018-09-22T15:45:26.092Z,2.37
2018-09-22T15:47:54.802Z,3.10
2018-09-22T15:50:23.383Z,4.50
2018-09-22T15:52:52.021Z,2.93
2018-09-22T15:55:20.731Z,14.33
2018-09-22T15:57:49.521Z,4.73
2018-09-22T16:00:18.179Z,2.00
2018-09-22T16:02:46.990Z,1.30
2018-09-22T16:05:15.537Z,1.80
2018-09-22T16:07:44.107Z,1.73
2018-09-22T16:10:13.476Z,1.97
2018-09-22T16:12:41.994Z,1.90
2018-09-22T16:15:11.717Z,1.57
2018-09-22T16:17:40.526Z,2.00
2018-09-22T16:20:10.213Z,1.80
2018-09-22T16:22:38.911Z,2.10
2018-09-22T16:25:07.879Z,1.80
2018-09-22T16:27:36.856Z,2.00
2018-09-22T16:30:05.915Z,2.00
2018-09-22T16:32:34.669Z,1.70
2018-09-22T16:35:03.500Z,1.97
2018-09-22T16:37:32.260Z,1.60
2018-09-22T16:40:01.142Z,1.47
2018-09-22T16:42:30.726Z,1.87
2018-09-22T16:44:59.250Z,1.50
2018-09-22T16:47:27.918Z,1.60
2018-09-22T16:49:56.556Z,1.93
2018-09-22T16:53:31.825Z,1.83
2018-09-22T16:56:00.693Z,1.97
2018-09-22T16:58:30.565Z,1.80
2018-09-22T17:00:59.209Z,2.00
2018-09-22T17:03:27.843Z,2.57
2018-09-22T17:05:56.528Z,3.00
2018-09-22T17:08:25.385Z,2.63
2018-09-22T17:10:54.035Z,2.43
2018-09-22T17:13:22.612Z,2.57
2018-09-22T17:15:51.424Z,3.07
2018-09-22T17:18:19.988Z,2.87
2018-09-22T17:23:24.103Z,2.50
2018-09-22T17:25:52.784Z,2.67
2018-09-22T17:28:21.327Z,2.20
2018-09-22T17:30:50.038Z,2.20
2018-09-22T17:33:18.698Z,2.30
2018-09-22T17:35:47.729Z,2.30
2018-09-22T17:38:16.746Z,1.90
2018-09-22T17:40:45.536Z,2.20
2018-09-22T17:43:14.066Z,2.03
2018-09-22T17:45:42.808Z,2.20
2018-09-22T17:48:12.435Z,2.33
2018-09-22T17:50:42.332Z,2.10
2018-09-22T17:53:11.018Z,2.27
2018-09-22T17:55:39.716Z,2.30
2018-09-22T17:58:08.324Z,2.50
2018-09-22T18:00:37.218Z,2.27
2018-09-22T18:03:06.770Z,2.40
2018-09-22T18:05:35.341Z,2.10
2018-09-22T18:08:04.074Z,2.30
2018-09-22T18:10:32.803Z,2.37
2018-09-22T18:13:01.493Z,2.23
2018-09-22T18:15:30.773Z,2.30
2018-09-22T18:17:59.406Z,2.80
2018-09-22T18:20:28.197Z,2.80
2018-09-22T18:22:57.908Z,2.90
2018-09-22T18:25:27.513Z,3.07
2018-09-22T18:27:56.111Z,2.63
2018-09-22T18:30:24.746Z,3.00
2018-09-22T18:32:53.345Z,3.20
2018-09-22T18:35:21.943Z,3.27
2018-09-22T18:37:50.483Z,3.33
2018-09-22T18:40:20.100Z,3.20
2018-09-22T18:42:48.811Z,4.80
2018-09-22T18:45:17.400Z,4.60
2018-09-22T18:47:45.932Z,3.97
2018-09-22T18:50:14.523Z,3.47
2018-09-22T18:52:43.258Z,3.60
2018-09-22T18:55:11.844Z,3.60
2018-09-22T18:57:40.391Z,3.73
2018-09-22T19:00:09.266Z,3.13
2018-09-22T19:02:37.881Z,2.70
2018-09-22T19:05:06.521Z,2.70
2018-09-22T19:07:35.217Z,3.07
2018-09-22T19:10:03.892Z,3.72
2018-09-22T19:12:32.707Z,4.17
2018-09-22T19:15:11.717Z,3.77
2018-09-22T19:17:48.218Z,3.40
2018-09-22T19:20:20.185Z,3.30
2018-09-22T19:22:58.533Z,3.23
2018-09-22T19:25:29.468Z,3.40
2018-09-22T19:28:07.536Z,3.23
2018-09-22T19:30:46.161Z,3.07
2018-09-22T19:33:25.293Z,3.03
2018-09-22T19:35:57.233Z,3.53
2018-09-22T19:38:29.997Z,2.83
2018-09-22T19:41:02.205Z,2.93
2018-09-22T19:43:36.053Z,3.27
2018-09-22T19:46:08.524Z,3.17
2018-09-22T19:48:47.063Z,8.23
2018-09-22T19:51:18.970Z,5.27
2018-09-22T19:53:48.897Z,3.90
2018-09-22T19:56:17.989Z,3.50
2018-09-22T19:58:46.680Z,4.73
2018-09-22T20:01:15.624Z,4.50
2018-09-22T20:03:44.355Z,3.30
2018-09-22T20:06:13.171Z,3.47
2018-09-22T20:08:44.885Z,3.87
2018-09-22T20:11:13.508Z,3.20
2018-09-22T20:13:42.260Z,3.20
2018-09-22T20:16:10.940Z,3.30
2018-09-22T20:18:39.438Z,4.13
2018-09-22T20:21:08.209Z,4.37
2018-09-22T20:23:36.714Z,4.20
2018-09-22T20:26:05.263Z,4.20
2018-09-22T20:28:34.101Z,4.23
2018-09-22T20:31:02.575Z,4.30
2018-09-22T20:33:31.129Z,4.10
2018-09-22T20:35:59.783Z,4.50
2018-09-22T20:38:29.761Z,4.13
2018-09-22T20:40:58.265Z,4.30
2018-09-22T20:43:26.978Z,4.20
2018-09-22T20:45:55.584Z,3.73
2018-09-22T20:48:24.981Z,3.97
2018-09-22T20:50:53.857Z,3.87
2018-09-22T20:53:22.326Z,3.57
2018-09-22T20:55:50.913Z,4.77
2018-09-22T20:58:20.184Z,3.80
2018-09-22T21:00:48.875Z,3.93
2018-09-22T21:03:17.536Z,4.10
2018-09-22T21:05:46.408Z,5.07
2018-09-22T21:08:15.896Z,4.37
2018-09-22T21:10:44.782Z,4.27
2018-09-22T21:13:13.500Z,4.60
2018-09-22T21:15:42.046Z,4.57
2018-09-22T21:18:10.600Z,4.60
2018-09-22T21:20:45.695Z,4.70
2018-09-22T21:23:14.260Z,5.03
2018-09-22T21:25:43.452Z,4.33
2018-09-22T21:28:12.403Z,4.27
2018-09-22T21:30:41.175Z,4.10
2018-09-22T21:33:10.035Z,4.20
2018-09-22T21:35:39.481Z,4.47
2018-09-22T21:38:08.389Z,4.37
2018-09-22T21:40:37.011Z,4.53
2018-09-22T21:43:07.004Z,4.27
2018-09-22T21:45:35.584Z,4.50
2018-09-22T21:48:04.632Z,4.27
2018-09-22T21:50:34.294Z,4.97
2018-09-22T21:53:02.900Z,5.37
2018-09-22T21:55:31.406Z,6.33
2018-09-22T21:58:00.048Z,4.37
2018-09-22T22:00:28.609Z,4.90
2018-09-22T22:02:57.408Z,4.73
2018-09-22T22:05:26.130Z,4.70
2018-09-22T22:07:54.657Z,4.50
2018-09-22T22:10:23.425Z,3.93
2018-09-22T22:12:52.386Z,4.10
2018-09-22T22:15:21.832Z,3.70
2018-09-22T22:17:50.433Z,4.20
2018-09-22T22:20:20.520Z,4.10
2018-09-22T22:22:48.957Z,3.70
2018-09-22T22:25:17.781Z,3.70
2018-09-22T22:27:47.109Z,3.47
2018-09-22T22:30:15.677Z,3.90
2018-09-22T22:32:44.204Z,4.00
2018-09-22T22:35:12.923Z,3.83
2018-09-22T22:37:41.518Z,3.67
2018-09-22T22:40:10.079Z,3.63
2018-09-22T22:42:38.868Z,3.93
2018-09-22T22:45:07.580Z,3.60
2018-09-22T22:47:36.255Z,3.90
2018-09-22T22:50:05.316Z,3.90
2018-09-22T22:52:33.810Z,3.43
2018-09-22T22:55:02.332Z,3.80
2018-09-22T22:57:31.053Z,3.53
2018-09-22T22:59:59.611Z,3.33
2018-09-22T23:02:28.298Z,3.63
2018-09-22T23:04:56.914Z,3.30
2018-09-22T23:07:25.472Z,3.73
2018-09-22T23:09:53.993Z,3.70
2018-09-22T23:12:23.017Z,3.97
2018-09-22T23:14:51.711Z,3.93
2018-09-22T23:17:20.397Z,3.87
2018-09-22T23:19:48.998Z,3.77
2018-09-22T23:22:17.529Z,3.97
2018-09-22T23:24:46.212Z,3.50
2018-09-22T23:27:15.875Z,4.17
2018-09-22T23:29:44.623Z,3.40
2018-09-22T23:32:14.008Z,4.07
2018-09-22T23:34:42.777Z,3.93
2018-09-22T23:37:11.357Z,3.80
2018-09-22T23:39:40.869Z,3.90
2018-09-22T23:42:09.527Z,3.90
2018-09-22T23:44:39.105Z,3.80
2018-09-22T23:47:07.692Z,3.53
2018-09-22T23:49:37.352Z,3.70
2018-09-22T23:52:05.908Z,3.30
2018-09-22T23:54:34.610Z,4.10
2018-09-22T23:57:03.233Z,3.77
2018-09-22T23:59:31.908Z,3.80
